Time;durP1;ratioP1;P1;durP2;ratioP2;P2;SDS_P1;SDS_P2;PMS_P1;PMS_P2;Temp;Humidity;BMP_temperature;BMP_pressure;BME280_temperature;BME280_humidity;BME280_pressure;Samples;Min_cycle;Max_cycle;Signal;HPM_P1;HPM_P2
2021/05/05 00:00:37;;;;;;;2.45;1.60;;;;;;;13.68;51.06;98824.00;5051301;27;101699;-88
2021/05/05 00:03:02;;;;;;;5.65;2.00;;;;;;;13.68;51.01;98832.75;5024420;27;97116;-88
2021/05/05 00:05:28;;;;;;;2.78;1.20;;;;;;;13.66;50.93;98826.72;5039915;27;97313;-88
2021/05/05 00:07:53;;;;;;;2.75;1.70;;;;;;;13.67;51.13;98836.34;5036550;27;101279;-88
2021/05/05 00:10:19;;;;;;;4.20;1.80;;;;;;;13.61;51.29;98830.63;5032723;27;101066;-88
2021/05/05 00:12:45;;;;;;;4.45;1.70;;;;;;;13.65;51.40;98825.06;5041205;27;96811;-86
2021/05/05 00:15:22;;;;;;;2.45;1.45;;;;;;;13.66;50.79;98825.88;5041323;27;96757;-84
2021/05/05 00:17:48;;;;;;;2.58;1.48;;;;;;;13.69;51.00;98837.06;5057750;27;100454;-88
2021/05/05 00:20:16;;;;;;;3.78;1.77;;;;;;;13.66;50.91;98823.25;5039935;27;100401;-83
2021/05/05 00:22:42;;;;;;;1.75;1.45;;;;;;;13.68;51.16;98819.56;5058245;27;96809;-88
2021/05/05 00:25:09;;;;;;;2.22;1.52;;;;;;;13.73;51.26;98816.59;5041281;27;96959;-88
2021/05/05 00:27:34;;;;;;;2.28;1.40;;;;;;;13.73;51.04;98804.25;5039920;27;101721;-88
2021/05/05 00:30:00;;;;;;;2.03;1.50;;;;;;;13.71;51.39;98808.78;5035458;27;101370;-88
2021/05/05 00:32:26;;;;;;;2.53;1.55;;;;;;;13.71;51.03;98810.59;5054696;27;96958;-88
2021/05/05 00:34:52;;;;;;;2.50;1.50;;;;;;;13.65;51.17;98813.66;5041363;27;96949;-88
2021/05/05 00:37:17;;;;;;;3.35;1.48;;;;;;;13.66;51.24;98816.19;5039773;27;101525;-87
2021/05/05 00:39:43;;;;;;;3.10;1.50;;;;;;;13.69;50.78;98813.31;5040365;27;100310;-88
2021/05/05 00:42:09;;;;;;;2.22;1.45;;;;;;;13.71;51.21;98818.50;5040933;27;97233;-88
2021/05/05 00:44:34;;;;;;;2.13;1.60;;;;;;;13.71;51.20;98813.22;5040552;27;97110;-88
2021/05/05 00:47:00;;;;;;;2.92;1.48;;;;;;;13.74;51.44;98815.66;5040397;27;100827;-88
2021/05/05 00:49:26;;;;;;;4.03;1.73;;;;;;;13.75;51.03;98817.31;5039762;27;101325;-88
2021/05/05 00:51:52;;;;;;;2.03;1.50;;;;;;;13.74;51.48;98811.22;5055310;27;98643;-88
2021/05/05 00:54:18;;;;;;;2.10;1.50;;;;;;;13.77;51.23;98797.81;5056716;27;96819;-88
2021/05/05 00:56:44;;;;;;;3.20;1.63;;;;;;;13.81;51.19;98794.00;5042558;27;97137;-88
2021/05/05 00:59:10;;;;;;;2.40;1.55;;;;;;;13.79;50.69;98793.28;5040278;27;101642;-88
2021/05/05 01:01:36;;;;;;;3.35;1.30;;;;;;;13.84;51.05;98786.81;5039704;27;96740;-88
2021/05/05 01:04:01;;;;;;;3.22;1.40;;;;;;;13.81;51.58;98782.59;5031478;27;96839;-88
2021/05/05 01:06:27;;;;;;;2.28;1.42;;;;;;;13.84;51.20;98765.72;5056647;27;101238;-88
2021/05/05 01:08:53;;;;;;;2.17;1.42;;;;;;;13.83;51.06;98775.44;5032208;27;100028;-88
2021/05/05 01:11:18;;;;;;;5.53;1.58;;;;;;;13.79;51.74;98766.91;5057755;27;97196;-87
2021/05/05 01:13:44;;;;;;;2.60;1.58;;;;;;;13.79;51.76;98761.63;5061579;27;97134;-86
2021/05/05 01:16:14;;;;;;;1.95;1.30;;;;;;;13.82;51.57;98769.31;5077774;27;98414;-88
2021/05/05 01:18:41;;;;;;;4.30;1.60;;;;;;;13.79;51.90;98779.25;5066124;27;99019;-88
2021/05/05 01:21:07;;;;;;;2.88;1.90;;;;;;;13.85;51.53;98789.38;5023106;27;97143;-88
2021/05/05 01:23:32;;;;;;;4.65;1.98;;;;;;;13.88;51.63;98796.22;5039361;27;97549;-88
2021/05/05 01:25:58;;;;;;;4.65;2.20;;;;;;;13.85;52.23;98822.81;5037915;27;101089;-88
2021/05/05 01:28:24;;;;;;;4.50;1.58;;;;;;;13.78;52.52;98823.22;5050450;27;101628;-88
2021/05/05 01:30:51;;;;;;;2.60;1.13;;;;;;;13.76;50.90;98816.41;5043796;27;97311;-88
2021/05/05 01:33:17;;;;;;;2.15;1.20;;;;;;;13.65;50.13;98822.41;5059532;27;96896;-87
2021/05/05 01:35:45;;;;;;;2.97;0.95;;;;;;;13.65;49.91;98811.88;5058463;27;98148;-87
2021/05/05 01:38:11;;;;;;;4.75;1.50;;;;;;;13.61;49.25;98814.81;5031941;27;101559;-84
2021/05/05 01:40:38;;;;;;;5.22;1.40;;;;;;;13.59;49.10;98813.13;5028750;27;96770;-88
2021/05/05 01:43:05;;;;;;;5.22;1.35;;;;;;;13.60;48.73;98808.72;5056790;27;97045;-88
2021/05/05 01:45:32;;;;;;;2.42;0.90;;;;;;;13.61;48.64;98813.03;5074574;27;98039;-88
2021/05/05 01:48:00;;;;;;;4.70;1.13;;;;;;;13.63;48.38;98820.84;5059813;27;100867;-88
2021/05/05 01:50:27;;;;;;;5.53;1.23;;;;;;;13.57;48.38;98803.66;5059618;27;97319;-88
2021/05/05 01:52:53;;;;;;;4.10;0.98;;;;;;;13.59;48.77;98802.59;5043610;27;97123;-88
2021/05/05 01:55:19;;;;;;;3.40;1.10;;;;;;;13.57;48.75;98798.38;5059064;27;100282;-87
2021/05/05 01:57:46;;;;;;;4.47;1.23;;;;;;;13.59;49.26;98799.97;5049596;27;101363;-85
2021/05/05 02:00:41;;;;;;;3.90;1.20;;;;;;;13.58;49.30;98795.66;5005803;28;96939;-88
2021/05/05 02:03:09;;;;;;;4.57;1.60;;;;;;;13.61;49.04;98797.19;4998834;28;96935;-88
2021/05/05 02:05:42;;;;;;;2.50;1.30;;;;;;;13.55;50.12;98811.66;4983664;28;101956;-88
2021/05/05 02:08:14;;;;;;;3.97;1.50;;;;;;;13.52;50.80;98805.75;5033849;27;101267;-84
2021/05/05 02:10:42;;;;;;;5.32;1.40;;;;;;;13.52;50.53;98798.69;4998101;28;96900;-88
2021/05/05 02:13:09;;;;;;;4.82;1.13;;;;;;;13.47;51.79;98798.19;5012358;28;97029;-88
2021/05/05 02:15:34;;;;;;;4.82;1.33;;;;;;;13.48;52.16;98796.41;4990395;28;101315;-88
2021/05/05 02:18:01;;;;;;;6.05;1.45;;;;;;;13.50;52.14;98795.34;5009507;27;101197;-88
2021/05/05 02:20:28;;;;;;;2.03;1.10;;;;;;;13.50;52.68;98786.59;5048164;27;97311;-87
2021/05/05 02:22:56;;;;;;;5.78;1.50;;;;;;;13.45;52.60;98784.25;5014044;27;96835;-88
2021/05/05 02:25:22;;;;;;;2.20;1.20;;;;;;;13.43;52.77;98780.88;5025658;27;97883;-87
2021/05/05 02:27:52;;;;;;;5.10;1.27;;;;;;;13.43;52.81;98772.16;5023210;27;97950;-87
2021/05/05 02:30:27;;;;;;;2.63;1.02;;;;;;;13.39;52.45;98771.53;5019378;27;97086;-88
2021/05/05 02:32:57;;;;;;;2.25;1.13;;;;;;;13.38;53.31;98769.84;5015310;28;97351;-88
2021/05/05 02:35:23;;;;;;;5.22;1.40;;;;;;;13.41;52.89;98771.41;4998269;27;98296;-88
2021/05/05 02:37:52;;;;;;;3.75;1.60;;;;;;;13.38;53.19;98769.84;5035131;27;101849;-88
2021/05/05 02:40:18;;;;;;;3.97;1.42;;;;;;;13.37;53.42;98768.16;5038029;27;97165;-84
2021/05/05 02:42:45;;;;;;;2.42;0.93;;;;;;;13.34;52.97;98756.03;5038949;27;96905;-85
2021/05/05 02:45:11;;;;;;;3.65;1.20;;;;;;;13.34;53.80;98752.53;5021788;27;100975;-87
2021/05/05 02:47:37;;;;;;;2.47;1.15;;;;;;;13.37;53.39;98754.97;5037839;27;99959;-88
2021/05/05 02:50:04;;;;;;;2.80;1.17;;;;;;;13.38;53.59;98764.56;5021702;27;96916;-88
2021/05/05 02:52:29;;;;;;;2.03;1.00;;;;;;;13.41;53.76;98760.84;5021801;27;97139;-88
2021/05/05 02:54:55;;;;;;;6.30;1.23;;;;;;;13.44;54.20;98765.91;5038287;27;101156;-88
2021/05/05 02:57:22;;;;;;;4.10;1.02;;;;;;;13.43;54.21;98775.63;5038549;27;101393;-88
2021/05/05 02:59:47;;;;;;;2.92;1.17;;;;;;;13.45;54.08;98764.97;5038052;27;97245;-87
2021/05/05 03:02:13;;;;;;;3.17;1.52;;;;;;;13.41;54.19;98760.84;5055970;27;96986;-88
2021/05/05 03:04:38;;;;;;;3.92;1.65;;;;;;;13.42;54.75;98752.03;5047834;27;101854;-88
2021/05/05 03:07:04;;;;;;;2.33;1.10;;;;;;;13.41;54.82;98756.44;5038488;27;101008;-88
2021/05/05 03:09:30;;;;;;;6.03;1.60;;;;;;;13.41;54.75;98743.28;5054090;27;97061;-88
2021/05/05 03:11:57;;;;;;;2.53;1.20;;;;;;;13.36;55.41;98740.94;5042195;27;97220;-88
2021/05/05 03:14:24;;;;;;;4.88;1.63;;;;;;;13.34;55.31;98742.00;5057769;27;101425;-87
2021/05/05 03:16:53;;;;;;;5.03;1.85;;;;;;;13.29;55.97;98744.97;5061325;27;100955;-88
2021/05/05 03:19:19;;;;;;;3.95;2.20;;;;;;;13.24;55.84;98744.41;5044055;27;97173;-84
2021/05/05 03:21:44;;;;;;;4.28;1.63;;;;;;;13.26;56.11;98750.44;5060098;27;96868;-86
2021/05/05 03:24:10;;;;;;;3.38;1.52;;;;;;;13.18;56.68;98754.53;5057870;27;101125;-88
2021/05/05 03:26:37;;;;;;;2.92;1.50;;;;;;;13.17;57.15;98758.13;5042085;27;100078;-88
2021/05/05 03:29:03;;;;;;;5.43;1.80;;;;;;;13.07;57.42;98756.13;5064112;27;96613;-88
2021/05/05 03:31:29;;;;;;;3.45;1.83;;;;;;;13.09;56.76;98754.22;5048770;27;97184;-88
2021/05/05 03:33:54;;;;;;;3.35;1.55;;;;;;;13.11;56.67;98754.13;5062451;27;101631;-88
2021/05/05 03:36:20;;;;;;;3.67;1.70;;;;;;;13.08;56.55;98747.25;5078656;27;97029;-87
2021/05/05 03:38:45;;;;;;;3.90;1.58;;;;;;;13.02;56.54;98738.94;5044623;27;96659;-87
2021/05/05 03:41:11;;;;;;;3.17;1.75;;;;;;;13.02;56.24;98737.16;5041611;27;97207;-88
2021/05/05 03:43:37;;;;;;;2.85;1.45;;;;;;;12.98;56.57;98737.50;5023750;27;101153;-88
2021/05/05 03:46:03;;;;;;;4.38;2.15;;;;;;;12.98;56.58;98743.59;5041195;27;101052;-88
2021/05/05 03:48:29;;;;;;;6.97;1.70;;;;;;;12.94;56.36;98736.84;5043230;27;97310;-88
2021/05/05 03:50:56;;;;;;;2.92;1.63;;;;;;;12.97;56.07;98733.97;5058698;27;96808;-88
2021/05/05 03:53:22;;;;;;;2.72;1.50;;;;;;;12.97;56.59;98739.25;5040406;27;101256;-87
2021/05/05 03:55:47;;;;;;;4.90;1.70;;;;;;;12.99;56.08;98742.63;5058573;27;97947;-88
2021/05/05 03:58:13;;;;;;;4.35;1.67;;;;;;;13.00;56.14;98740.84;5038507;27;96872;-88
2021/05/05 04:00:39;;;;;;;6.07;1.90;;;;;;;13.02;56.06;98749.47;5050081;27;97117;-88
2021/05/05 04:03:04;;;;;;;7.25;1.95;;;;;;;13.03;56.07;98752.03;5059029;27;98479;-88
2021/05/05 04:05:30;;;;;;;8.98;2.30;;;;;;;13.13;56.20;98757.50;5050405;27;97906;-88
2021/05/05 04:07:55;;;;;;;12.48;2.75;;;;;;;13.25;55.91;98750.53;5041476;27;96917;-84
2021/05/05 04:10:21;;;;;;;12.15;2.92;;;;;;;13.38;55.08;98754.03;5034144;27;96844;-87
2021/05/05 04:12:47;;;;;;;21.67;3.70;;;;;;;13.45;55.84;98762.34;5096236;27;98483;-88
2021/05/05 04:15:13;;;;;;;8.35;2.60;;;;;;;13.51;55.48;98757.47;5040779;27;100479;-87
2021/05/05 04:17:38;;;;;;;10.38;2.25;;;;;;;13.66;54.83;98768.72;5060643;27;96622;-88
2021/05/05 04:20:05;;;;;;;5.90;2.15;;;;;;;13.73;54.66;98762.06;5024116;27;97085;-88
2021/05/05 04:22:32;;;;;;;7.75;2.20;;;;;;;13.68;55.14;98761.56;5036617;27;101168;-88
2021/05/05 04:24:58;;;;;;;6.05;2.00;;;;;;;13.59;54.94;98767.50;5024231;27;101000;-88
2021/05/05 04:27:24;;;;;;;5.70;2.40;;;;;;;13.51;55.25;98769.81;5036914;27;97352;-88
2021/05/05 04:29:49;;;;;;;5.72;2.65;;;;;;;13.51;54.90;98769.81;5032054;27;97077;-88
2021/05/05 04:32:15;;;;;;;7.75;1.92;;;;;;;13.56;54.27;98772.97;5044090;27;98189;-84
2021/05/05 04:34:41;;;;;;;5.38;1.67;;;;;;;13.60;54.08;98766.53;5037294;27;101272;-88
2021/05/05 04:37:07;;;;;;;6.78;1.58;;;;;;;13.64;52.99;98772.41;5043606;27;96970;-88
2021/05/05 04:39:34;;;;;;;4.63;1.65;;;;;;;13.70;52.83;98769.34;5077284;27;96976;-89
2021/05/05 04:41:59;;;;;;;3.83;1.67;;;;;;;13.67;52.77;98767.78;5043225;27;101456;-88
2021/05/05 04:44:25;;;;;;;5.13;1.60;;;;;;;13.59;52.25;98780.66;5049573;27;101627;-88
2021/05/05 04:46:51;;;;;;;5.65;1.77;;;;;;;13.49;52.71;98780.44;5057912;27;97117;-88
2021/05/05 04:49:16;;;;;;;7.90;1.67;;;;;;;13.46;52.11;98783.31;5030525;27;96880;-87
2021/05/05 04:51:42;;;;;;;3.08;1.35;;;;;;;13.42;52.48;98778.38;5056808;27;100075;-87
2021/05/05 04:54:08;;;;;;;5.47;1.60;;;;;;;13.46;52.04;98785.09;5031122;27;100917;-88
2021/05/05 04:56:34;;;;;;;3.55;1.50;;;;;;;13.46;51.86;98779.84;5037996;27;97277;-88
2021/05/05 04:59:00;;;;;;;3.60;1.33;;;;;;;13.48;51.89;98765.59;5043806;27;96836;-88
2021/05/05 05:01:27;;;;;;;5.57;1.45;;;;;;;13.57;51.40;98764.09;5040041;27;101259;-88
2021/05/05 05:03:52;;;;;;;3.80;1.63;;;;;;;13.76;51.12;98774.19;5029993;27;99521;-87
2021/05/05 05:06:18;;;;;;;4.05;1.50;;;;;;;13.80;50.65;98767.75;5077044;27;96870;-84
2021/05/05 05:08:44;;;;;;;7.55;2.05;;;;;;;13.85;50.43;98767.44;5041508;27;97161;-86
2021/05/05 05:11:09;;;;;;;7.60;1.70;;;;;;;13.81;50.79;98766.78;5052048;27;97396;-88
2021/05/05 05:13:35;;;;;;;5.90;1.50;;;;;;;13.81;49.84;98777.31;5039292;27;101432;-88
2021/05/05 05:16:00;;;;;;;4.53;1.60;;;;;;;13.79;50.56;98771.34;5052062;27;96661;-88
2021/05/05 05:18:26;;;;;;;8.95;2.08;;;;;;;13.76;50.24;98774.19;5072291;27;96803;-88
2021/05/05 05:20:52;;;;;;;4.80;1.98;;;;;;;13.85;50.72;98777.97;5048396;27;96968;-88
2021/05/05 05:23:17;;;;;;;5.95;1.90;;;;;;;13.99;50.23;98768.09;5041234;27;100584;-88
2021/05/05 05:25:43;;;;;;;5.53;1.52;;;;;;;14.11;49.95;98766.38;5025744;27;96645;-87
2021/05/05 05:28:08;;;;;;;3.38;1.73;;;;;;;14.01;49.90;98770.63;5028570;27;96902;-88
2021/05/05 05:30:34;;;;;;;5.50;1.77;;;;;;;14.15;49.75;98769.63;5055129;27;97441;-88
2021/05/05 05:33:00;;;;;;;15.07;2.03;;;;;;;14.12;49.73;98775.97;5042839;27;100939;-88
2021/05/05 05:35:26;;;;;;;4.75;1.80;;;;;;;14.25;49.70;98771.47;5059171;27;96666;-88
2021/05/05 05:37:52;;;;;;;7.95;1.48;;;;;;;14.49;49.54;98768.81;5052830;27;96785;-88
2021/05/05 05:40:18;;;;;;;4.32;1.63;;;;;;;15.22;48.15;98771.28;5056139;27;97693;-88
2021/05/05 05:42:44;;;;;;;4.47;1.92;;;;;;;15.28;47.90;98769.00;5051639;27;100227;-88
2021/05/05 05:45:11;;;;;;;11.73;3.25;;;;;;;15.27;48.24;98764.69;5043200;27;96948;-88
2021/05/05 05:47:40;;;;;;;3.95;1.58;;;;;;;15.11;48.58;98775.59;5076683;27;97074;-85
2021/05/05 05:50:07;;;;;;;4.80;1.67;;;;;;;14.76;48.56;98762.44;5058652;27;101472;-86
2021/05/05 05:52:33;;;;;;;8.43;1.80;;;;;;;14.65;49.87;98765.88;5055062;27;98457;-85
2021/05/05 05:54:59;;;;;;;6.13;1.58;;;;;;;14.55;49.35;98777.28;5038412;27;97078;-85
2021/05/05 05:57:24;;;;;;;6.32;1.70;;;;;;;14.46;50.07;98778.78;5052399;27;97013;-85
2021/05/05 05:59:50;;;;;;;4.78;1.60;;;;;;;14.37;49.65;98774.16;5055241;27;99566;-86
2021/05/05 06:02:17;;;;;;;4.18;2.30;;;;;;;14.33;50.05;98777.97;5065950;27;99972;-86
2021/05/05 06:04:43;;;;;;;6.20;2.03;;;;;;;14.43;49.99;98776.34;5024825;27;96732;-86
2021/05/05 06:07:08;;;;;;;7.78;1.85;;;;;;;14.63;49.61;98775.75;5076796;27;96941;-87
2021/05/05 06:09:34;;;;;;;5.85;1.60;;;;;;;14.88;49.21;98772.06;5054265;27;101493;-87
2021/05/05 06:12:00;;;;;;;7.28;2.20;;;;;;;15.15;48.54;98761.19;5037057;27;101471;-86
2021/05/05 06:14:25;;;;;;;10.18;1.90;;;;;;;15.43;47.98;98758.19;5045771;27;96791;-86
2021/05/05 06:16:51;;;;;;;17.13;2.60;;;;;;;15.68;48.06;98759.75;5038062;27;97917;-87
2021/05/05 06:19:17;;;;;;;9.05;2.17;;;;;;;15.92;46.89;98763.09;5037753;27;101298;-87
2021/05/05 06:21:42;;;;;;;8.10;1.90;;;;;;;16.63;45.65;98757.28;5061221;27;97386;-86
2021/05/05 06:24:08;;;;;;;6.10;1.80;;;;;;;16.47;45.49;98763.03;5035030;27;97334;-87
2021/05/05 06:26:34;;;;;;;11.13;2.47;;;;;;;16.05;46.12;98763.75;5044657;27;96770;-88
2021/05/05 06:28:59;;;;;;;11.55;2.22;;;;;;;15.72;46.49;98766.50;5072349;27;101352;-83
2021/05/05 06:31:25;;;;;;;12.52;2.45;;;;;;;15.69;46.89;98761.44;5029045;27;101229;-84
2021/05/05 06:33:51;;;;;;;22.27;3.17;;;;;;;15.69;46.73;98772.03;5037803;27;97334;-84
2021/05/05 06:36:16;;;;;;;11.27;2.45;;;;;;;15.79;46.70;98780.91;5048094;27;96934;-83
2021/05/05 06:38:41;;;;;;;14.55;2.58;;;;;;;15.94;46.56;98789.41;5034873;27;100299;-81
2021/05/05 06:41:07;;;;;;;5.47;1.55;;;;;;;16.23;46.14;98763.22;5034846;27;101739;-89
2021/05/05 06:43:33;;;;;;;2.85;1.10;;;;;;;16.36;46.32;98776.31;5021306;27;97271;-82
2021/05/05 06:45:59;;;;;;;6.82;2.00;;;;;;;16.35;46.31;98772.84;5048480;27;97688;-90
2021/05/05 06:48:25;;;;;;;14.93;1.88;;;;;;;16.43;46.00;98777.47;5051650;27;97924;-89
2021/05/05 06:50:50;;;;;;;5.93;1.30;;;;;;;16.65;45.15;98781.84;5073765;27;101306;-89
2021/05/05 06:53:16;;;;;;;4.75;1.60;;;;;;;16.73;44.87;98790.00;5055602;27;97309;-88
2021/05/05 06:55:41;;;;;;;7.82;2.13;;;;;;;16.68;44.92;98794.84;5040976;27;97435;-89
2021/05/05 06:58:07;;;;;;;3.88;1.65;;;;;;;17.07;44.49;98781.88;5039288;27;98213;-89
2021/05/05 07:00:33;;;;;;;4.30;1.65;;;;;;;17.58;43.43;98786.31;5053091;27;100400;-89
2021/05/05 07:02:58;;;;;;;5.32;1.63;;;;;;;17.95;42.24;98775.13;5034189;27;96776;-89
2021/05/05 07:05:24;;;;;;;5.13;1.60;;;;;;;17.75;42.43;98785.69;5031222;27;97387;-89
2021/05/05 07:07:49;;;;;;;3.72;1.70;;;;;;;17.41;42.75;98782.47;5051699;27;100825;-87
2021/05/05 07:10:15;;;;;;;3.30;1.63;;;;;;;17.29;43.38;98784.38;5034768;27;100152;-88
2021/05/05 07:12:41;;;;;;;13.77;2.28;;;;;;;16.92;43.45;98782.19;5056603;27;96791;-87
2021/05/05 07:15:07;;;;;;;19.52;2.83;;;;;;;16.50;43.99;98782.16;5071744;27;97140;-88
2021/05/05 07:17:33;;;;;;;11.63;2.40;;;;;;;16.34;44.52;98776.44;5056170;27;97513;-87
2021/05/05 07:19:59;;;;;;;6.88;1.95;;;;;;;16.45;44.39;98778.19;5055023;27;100204;-89
2021/05/05 07:22:24;;;;;;;14.98;3.55;;;;;;;16.67;44.25;98771.97;5075318;27;97255;-89
2021/05/05 07:24:50;;;;;;;21.00;2.60;;;;;;;16.78;43.70;98765.78;5054122;27;97223;-89
2021/05/05 07:27:16;;;;;;;28.75;3.45;;;;;;;16.62;44.17;98771.50;5060985;27;98466;-89
2021/05/05 07:29:42;;;;;;;12.90;2.65;;;;;;;16.49;44.62;98769.03;5048268;27;97384;-89
2021/05/05 07:32:08;;;;;;;24.88;2.40;;;;;;;16.58;44.51;98760.34;5057596;27;97175;-85
2021/05/05 07:34:35;;;;;;;13.68;2.70;;;;;;;16.57;44.65;98755.97;5051905;27;97548;-87
2021/05/05 07:37:11;;;;;;;10.02;1.85;;;;;;;16.42;44.99;98751.97;5064409;27;97871;-83
2021/05/05 07:40:40;;;;;;;9.25;2.35;;;;;;;16.29;44.64;98750.34;5076566;27;99136;-87
2021/05/05 07:47:42;;;;;;;5.55;1.73;;;;;;;16.15;43.89;98733.91;5061201;27;98520;-86
2021/05/05 07:50:10;;;;;;;6.45;1.70;;;;;;;16.06;43.75;98722.28;5055321;27;101889;-81
2021/05/05 07:52:36;;;;;;;5.00;1.83;;;;;;;16.10;44.29;98729.00;5059738;27;97218;-91
2021/05/05 07:55:04;;;;;;;5.20;1.65;;;;;;;15.99;43.74;98732.50;5061029;27;97325;-88
2021/05/05 07:57:30;;;;;;;6.05;1.70;;;;;;;15.94;43.33;98734.72;5086441;27;97051;-88
2021/05/05 07:59:55;;;;;;;6.03;1.45;;;;;;;15.79;43.35;98736.75;5079458;27;96785;-92
2021/05/05 08:02:21;;;;;;;6.75;1.75;;;;;;;15.78;43.44;98743.03;5068687;27;98138;-89
2021/05/05 08:04:49;;;;;;;4.40;1.70;;;;;;;15.73;43.67;98739.91;5067159;27;96865;-87
2021/05/05 08:07:17;;;;;;;5.30;1.65;;;;;;;15.79;43.44;98742.03;5071094;27;98011;-86
2021/05/05 08:09:42;;;;;;;5.93;2.22;;;;;;;15.65;43.55;98737.03;5057215;27;100347;-90
2021/05/05 08:12:09;;;;;;;5.40;1.63;;;;;;;15.61;43.49;98741.69;5058316;27;97620;-90
2021/05/05 08:14:34;;;;;;;6.25;1.55;;;;;;;15.61;43.56;98735.56;5057544;27;97497;-92
2021/05/05 08:17:00;;;;;;;6.40;1.63;;;;;;;15.56;43.47;98732.44;5076161;27;100805;-91
2021/05/05 08:19:26;;;;;;;4.40;1.52;;;;;;;15.60;43.56;98734.72;5049582;27;100270;-92
2021/05/05 08:21:52;;;;;;;9.68;1.77;;;;;;;15.70;43.67;98737.50;5075834;27;97396;-91
2021/05/05 08:24:17;;;;;;;6.65;1.80;;;;;;;15.60;43.51;98741.84;5059548;27;96723;-83
2021/05/05 08:26:45;;;;;;;5.18;1.52;;;;;;;15.52;43.74;98742.44;5072444;27;100033;-84
2021/05/05 08:29:10;;;;;;;4.55;1.55;;;;;;;15.38;43.79;98753.25;5034260;27;101444;-84
2021/05/05 08:31:36;;;;;;;4.43;2.00;;;;;;;15.37;43.95;98751.56;5056368;27;96815;-84
2021/05/05 08:34:01;;;;;;;3.10;1.40;;;;;;;15.42;43.12;98762.63;5046975;27;97644;-84
2021/05/05 08:36:27;;;;;;;1.83;1.02;;;;;;;15.33;43.44;98760.69;5065306;27;98020;-84
2021/05/05 08:38:54;;;;;;;5.68;1.48;;;;;;;15.32;43.46;98764.31;5037899;27;101845;-84
2021/05/05 08:41:21;;;;;;;6.63;1.80;;;;;;;15.31;43.35;98765.28;5033828;27;97397;-83
2021/05/05 08:43:46;;;;;;;6.75;1.40;;;;;;;15.34;42.87;98765.03;5034227;27;96843;-89
2021/05/05 08:46:12;;;;;;;4.90;1.60;;;;;;;15.31;42.48;98755.53;5036904;27;99963;-89
2021/05/05 08:48:38;;;;;;;4.20;1.17;;;;;;;15.24;41.81;98748.19;5049452;27;101494;-89
2021/05/05 08:51:06;;;;;;;4.80;1.27;;;;;;;15.24;42.82;98746.44;5056763;27;97212;-90
2021/05/05 08:53:32;;;;;;;2.85;1.20;;;;;;;15.23;42.69;98755.28;5046042;27;98425;-89
2021/05/05 08:55:58;;;;;;;3.72;1.33;;;;;;;15.19;42.30;98753.88;5056296;27;101097;-90
2021/05/05 08:58:23;;;;;;;5.05;1.73;;;;;;;15.15;42.79;98761.19;5019491;27;98236;-90
2021/05/05 09:00:49;;;;;;;3.92;1.42;;;;;;;15.17;42.72;98758.41;5013860;27;97249;-90
2021/05/05 09:03:15;;;;;;;5.63;2.17;;;;;;;15.08;41.88;98756.50;5056551;27;97373;-87
2021/05/05 09:05:53;;;;;;;8.13;1.95;;;;;;;15.08;42.14;98756.50;5055217;27;101295;-89
2021/05/05 09:08:23;;;;;;;4.38;1.52;;;;;;;15.18;42.66;98762.72;5039881;27;101511;-89
2021/05/05 09:10:57;;;;;;;4.72;1.85;;;;;;;15.16;42.18;98754.94;5022552;27;96783;-88
2021/05/05 09:13:57;;;;;;;4.25;1.50;;;;;;;15.16;41.32;98760.22;5021993;27;96760;-87
2021/05/05 09:16:31;;;;;;;8.13;1.70;;;;;;;15.18;41.02;98752.16;5033051;27;98016;-89
2021/05/05 09:19:02;;;;;;;7.30;1.42;;;;;;;15.18;40.20;98760.09;5024258;27;101089;-88
2021/05/05 09:21:32;;;;;;;2.20;1.02;;;;;;;15.23;40.35;98750.00;5031031;27;96838;-84
2021/05/05 09:24:19;;;;;;;3.85;1.23;;;;;;;15.32;40.12;98751.94;5037083;27;97268;-88
2021/05/05 09:26:46;;;;;;;4.93;1.67;;;;;;;15.28;39.76;98761.06;5067234;27;97407;-88
2021/05/05 09:29:12;;;;;;;3.38;1.25;;;;;;;15.37;39.28;98756.88;5034364;27;101001;-89
2021/05/05 09:31:40;;;;;;;5.00;1.33;;;;;;;15.40;39.61;98768.03;5032061;27;96922;-88
2021/05/05 09:34:10;;;;;;;4.35;1.33;;;;;;;15.40;39.66;98765.38;5037105;27;97073;-85
2021/05/05 09:36:38;;;;;;;3.83;1.50;;;;;;;15.38;39.89;98774.41;5054806;27;100217;-88
2021/05/05 09:39:07;;;;;;;2.80;1.38;;;;;;;15.34;40.26;98783.53;5033796;27;98120;-82
2021/05/05 09:41:33;;;;;;;3.58;1.42;;;;;;;15.27;40.25;98785.84;5043329;27;97062;-90
2021/05/05 09:44:02;;;;;;;3.00;1.35;;;;;;;15.29;40.49;98780.41;5071255;27;97035;-89
2021/05/05 09:46:43;;;;;;;9.75;1.42;;;;;;;15.27;40.47;98783.19;5037443;27;100181;-84
2021/05/05 09:49:34;;;;;;;8.23;1.30;;;;;;;15.22;41.03;98776.56;5057812;27;101038;-91
2021/05/05 09:52:08;;;;;;;4.00;1.35;;;;;;;15.20;40.92;98781.97;5056957;27;97259;-85
2021/05/05 09:54:38;;;;;;;3.97;1.40;;;;;;;15.10;40.82;98784.50;5051773;27;97304;-89
2021/05/05 09:57:22;;;;;;;6.50;1.47;;;;;;;15.06;40.54;98785.66;5055667;27;100302;-89
2021/05/05 10:00:02;;;;;;;3.72;1.60;;;;;;;14.99;40.96;98788.91;5027473;27;101280;-90
2021/05/05 10:03:04;;;;;;;2.92;1.30;;;;;;;15.04;41.09;98799.94;5047440;27;97106;-90
2021/05/05 10:05:34;;;;;;;2.20;1.30;;;;;;;15.06;40.63;98796.22;5039576;27;98150;-84
2021/05/05 10:08:01;;;;;;;5.13;1.55;;;;;;;15.06;41.33;98788.31;5054274;27;98489;-89
2021/05/05 10:10:32;;;;;;;3.30;1.10;;;;;;;15.09;40.63;98790.72;5040416;27;99473;-84
2021/05/05 10:13:00;;;;;;;2.95;1.05;;;;;;;14.98;41.16;98793.38;5035158;27;97358;-87
2021/05/05 10:15:30;;;;;;;5.55;1.45;;;;;;;14.96;40.60;98791.78;5064055;27;98240;-86
2021/05/05 10:17:57;;;;;;;6.15;1.73;;;;;;;14.91;40.72;98794.78;5058330;27;100510;-87
2021/05/05 10:20:28;;;;;;;4.32;1.30;;;;;;;14.92;40.89;98796.44;5054538;27;101193;-85
2021/05/05 10:22:58;;;;;;;8.32;1.60;;;;;;;14.99;40.40;98797.69;5041444;27;96732;-86
2021/05/05 10:25:24;;;;;;;4.53;1.30;;;;;;;15.05;39.50;98789.28;5047994;27;98045;-87
2021/05/05 10:27:51;;;;;;;6.82;1.30;;;;;;;15.12;39.41;98800.22;5037281;27;102132;-87
2021/05/05 10:30:43;;;;;;;7.30;1.48;;;;;;;15.14;39.22;98798.31;5041079;27;101262;-87
2021/05/05 10:33:24;;;;;;;4.65;1.40;;;;;;;15.14;39.03;98787.72;5056310;27;96975;-86
2021/05/05 10:35:49;;;;;;;3.72;1.20;;;;;;;15.20;39.60;98794.34;5039155;27;97351;-88
2021/05/05 10:38:31;;;;;;;6.82;1.35;;;;;;;15.31;38.67;98789.91;5037181;27;101856;-87
2021/05/05 10:41:08;;;;;;;8.88;1.67;;;;;;;15.37;39.30;98797.34;5022337;27;101543;-87
2021/05/05 10:43:51;;;;;;;11.23;1.73;;;;;;;15.38;39.48;98798.19;5026037;27;97039;-87
2021/05/05 10:46:32;;;;;;;3.95;1.60;;;;;;;15.45;39.67;98804.72;5020790;27;97067;-87
2021/05/05 10:49:05;;;;;;;5.38;1.60;;;;;;;15.44;39.33;98808.28;5047454;27;98012;-85
2021/05/05 10:51:47;;;;;;;4.18;1.30;;;;;;;15.30;39.35;98804.09;5065422;27;98505;-86
2021/05/05 10:54:14;;;;;;;5.05;1.38;;;;;;;15.27;39.50;98808.75;5043808;27;96790;-88
2021/05/05 10:56:40;;;;;;;3.15;1.10;;;;;;;15.24;39.29;98807.22;5030904;27;97171;-87
2021/05/05 10:59:08;;;;;;;2.83;1.17;;;;;;;15.18;39.54;98805.03;5005486;27;100195;-87
2021/05/05 11:01:45;;;;;;;3.95;1.70;;;;;;;15.18;39.91;98799.72;5035787;27;97368;-87
2021/05/05 11:04:13;;;;;;;3.58;1.48;;;;;;;15.12;40.46;98801.03;5018822;27;97356;-87
2021/05/05 11:06:50;;;;;;;7.03;1.58;;;;;;;15.10;41.00;98802.97;5042843;27;97069;-87
2021/05/05 11:09:16;;;;;;;5.75;1.85;;;;;;;15.09;40.66;98798.63;5020216;27;101855;-86
2021/05/05 11:11:49;;;;;;;3.22;1.27;;;;;;;15.04;41.29;98806.09;5060194;27;98357;-86
2021/05/05 11:14:27;;;;;;;8.32;1.63;;;;;;;14.90;40.93;98799.22;5034883;27;98257;-88
2021/05/05 11:17:06;;;;;;;5.95;1.48;;;;;;;14.88;41.09;98803.75;5049129;27;97332;-90
2021/05/05 11:19:39;;;;;;;5.72;1.80;;;;;;;14.88;41.76;98800.28;5043454;27;100783;-90
2021/05/05 11:22:08;;;;;;;8.40;1.83;;;;;;;14.97;41.52;98804.88;5031586;27;97340;-87
2021/05/05 11:24:38;;;;;;;10.82;1.83;;;;;;;15.00;41.85;98798.50;5051941;27;97159;-86
2021/05/05 11:27:09;;;;;;;5.22;1.60;;;;;;;15.01;41.60;98785.19;5044442;27;97125;-88
2021/05/05 11:29:36;;;;;;;11.18;2.22;;;;;;;15.11;41.63;98795.91;5028142;27;101205;-88
2021/05/05 11:32:04;;;;;;;6.28;1.50;;;;;;;15.20;41.32;98791.69;5049913;27;97385;-90
2021/05/05 11:34:35;;;;;;;4.35;1.73;;;;;;;15.28;40.70;98797.25;5031531;27;97377;-88
2021/05/05 11:37:01;;;;;;;7.20;2.37;;;;;;;15.28;41.06;98789.31;5032609;27;97428;-88